Time;durP1;ratioP1;P1;durP2;ratioP2;P2;SDS_P1;SDS_P2;PMS_P1;PMS_P2;Temp;Humidity;BMP_temperature;BMP_pressure;BME280_temperature;BME280_humidity;BME280_pressure;Samples;Min_cycle;Max_cycle;Signal;HPM_P1;HPM_P2
2021/05/19 00:00:28;;;;;;;2.47;2.17;;;;;;;;;;5084798;28;20459;-95
2021/05/19 00:02:55;;;;;;;4.90;2.17;;;;;;;;;;5077500;28;20473;-95
2021/05/19 00:05:20;;;;;;;2.43;1.80;;;;;;;;;;5085104;28;20484;-94
2021/05/19 00:07:46;;;;;;;3.27;1.93;;;;;;;;;;5077648;28;20445;-94
2021/05/19 00:10:12;;;;;;;2.33;1.80;;;;;;;;;;5084230;28;20812;-94
2021/05/19 00:12:38;;;;;;;2.30;1.80;;;;;;;;;;5077092;28;20474;-95
2021/05/19 00:15:05;;;;;;;4.20;2.10;;;;;;;;;;5085077;28;20448;-95
2021/05/19 00:17:40;;;;;;;4.93;1.50;;;;;;;;;;5076092;28;20523;-96
2021/05/19 00:20:06;;;;;;;1.73;1.60;;;;;;;;;;5085235;28;20859;-95
2021/05/19 00:22:32;;;;;;;2.90;2.20;;;;;;;;;;5077341;28;20461;-95
2021/05/19 00:24:58;;;;;;;2.30;2.10;;;;;;;;;;5082584;28;20544;-94
2021/05/19 00:27:24;;;;;;;3.60;2.23;;;;;;;;;;5080283;28;20471;-94
2021/05/19 00:29:52;;;;;;;2.33;2.17;;;;;;;;;;5079432;28;20445;-94
2021/05/19 00:32:18;;;;;;;3.63;1.90;;;;;;;;;;5083070;28;20503;-94
2021/05/19 00:34:45;;;;;;;7.80;1.80;;;;;;;;;;5076145;28;20445;-94
2021/05/19 00:37:11;;;;;;;2.93;1.93;;;;;;;;;;5084260;28;20461;-95
2021/05/19 00:39:37;;;;;;;1.97;1.87;;;;;;;;;;5073170;28;20458;-96
2021/05/19 00:42:03;;;;;;;2.20;2.00;;;;;;;;;;5084218;28;20450;-95
2021/05/19 00:44:29;;;;;;;1.70;1.60;;;;;;;;;;5072612;28;20464;-95
2021/05/19 00:46:55;;;;;;;2.03;1.93;;;;;;;;;;5083155;28;20536;-94
2021/05/19 00:49:21;;;;;;;2.33;2.10;;;;;;;;;;5072487;28;22017;-95
2021/05/19 00:51:48;;;;;;;4.10;1.80;;;;;;;;;;5083972;28;20485;-94
2021/05/19 00:54:14;;;;;;;2.20;1.80;;;;;;;;;;5080498;28;20464;-95
2021/05/19 00:56:40;;;;;;;3.87;2.47;;;;;;;;;;5084179;28;20457;-95
2021/05/19 00:59:07;;;;;;;2.43;2.07;;;;;;;;;;5080214;28;20452;-95
2021/05/19 01:01:35;;;;;;;2.00;1.80;;;;;;;;;;5084059;28;20449;-94
2021/05/19 01:04:01;;;;;;;6.37;2.00;;;;;;;;;;5078857;28;20982;-94
2021/05/19 01:06:33;;;;;;;3.23;2.27;;;;;;;;;;5084051;28;20487;-94
2021/05/19 01:11:43;;;;;;;2.20;1.80;;;;;;;;;;5083590;28;20487;-95
2021/05/19 01:14:10;;;;;;;3.33;2.10;;;;;;;;;;5078361;28;20449;-95
2021/05/19 01:16:35;;;;;;;2.73;1.90;;;;;;;;;;5082881;28;20449;-95
2021/05/19 01:19:02;;;;;;;1.90;1.80;;;;;;;;;;5082450;28;20970;-95
2021/05/19 01:21:28;;;;;;;4.07;2.10;;;;;;;;;;5076517;28;20457;-95
2021/05/19 01:23:56;;;;;;;3.73;2.00;;;;;;;;;;5084187;28;20471;-95
2021/05/19 01:26:22;;;;;;;2.10;1.90;;;;;;;;;;5077635;28;20469;-93
2021/05/19 01:28:48;;;;;;;1.90;1.80;;;;;;;;;;5083623;28;20457;-95
2021/05/19 01:31:14;;;;;;;2.13;2.03;;;;;;;;;;5075763;28;20502;-95
2021/05/19 01:33:40;;;;;;;2.57;2.37;;;;;;;;;;5083292;28;20460;-94
2021/05/19 01:36:06;;;;;;;2.17;2.07;;;;;;;;;;5077219;28;20453;-93
2021/05/19 01:38:33;;;;;;;2.23;2.03;;;;;;;;;;5083683;28;20472;-95
2021/05/19 01:41:00;;;;;;;3.90;1.80;;;;;;;;;;5075943;28;20454;-94
2021/05/19 01:43:29;;;;;;;2.37;2.27;;;;;;;;;;5083466;28;20973;-94
2021/05/19 01:45:56;;;;;;;3.63;2.10;;;;;;;;;;5074617;28;20526;-95
2021/05/19 01:48:22;;;;;;;4.30;2.30;;;;;;;;;;5083082;28;20487;-95
2021/05/19 01:50:50;;;;;;;2.27;2.07;;;;;;;;;;5075271;28;20580;-95
2021/05/19 01:53:16;;;;;;;2.40;2.20;;;;;;;;;;5081477;28;20452;-94
2021/05/19 01:55:42;;;;;;;2.40;2.20;;;;;;;;;;5078841;28;20449;-94
2021/05/19 01:58:09;;;;;;;3.20;2.37;;;;;;;;;;5079169;28;21236;-95
2021/05/19 02:00:35;;;;;;;2.70;2.50;;;;;;;;;;5083437;28;20478;-95
2021/05/19 02:03:03;;;;;;;3.20;2.60;;;;;;;;;;5073767;28;20536;-94
2021/05/19 02:05:30;;;;;;;3.07;2.20;;;;;;;;;;5083364;28;20449;-95
2021/05/19 02:07:56;;;;;;;2.50;2.30;;;;;;;;;;5073138;28;20457;-95
2021/05/19 02:10:22;;;;;;;2.20;2.10;;;;;;;;;;5082758;28;20461;-95
2021/05/19 02:12:49;;;;;;;3.67;2.50;;;;;;;;;;5072780;28;21182;-95
2021/05/19 02:15:16;;;;;;;2.37;2.17;;;;;;;;;;5081631;28;20453;-95
2021/05/19 02:17:43;;;;;;;4.03;2.20;;;;;;;;;;5071354;28;20472;-94
2021/05/19 02:20:10;;;;;;;3.40;2.30;;;;;;;;;;5083066;28;20484;-95
2021/05/19 02:22:36;;;;;;;2.50;2.30;;;;;;;;;;5079736;28;20460;-95
2021/05/19 02:25:02;;;;;;;3.60;2.53;;;;;;;;;;5083333;28;20480;-95
2021/05/19 02:27:28;;;;;;;3.43;2.20;;;;;;;;;;5074271;28;20454;-95
2021/05/19 02:29:54;;;;;;;2.00;1.80;;;;;;;;;;5078682;28;20454;-94
2021/05/19 02:32:22;;;;;;;3.77;2.77;;;;;;;;;;5078026;28;20504;-95
2021/05/19 02:34:48;;;;;;;3.83;2.40;;;;;;;;;;5082435;28;20453;-95
2021/05/19 02:37:14;;;;;;;2.30;2.10;;;;;;;;;;5078725;28;20503;-95
2021/05/19 02:39:40;;;;;;;3.40;2.40;;;;;;;;;;5081285;28;20453;-94
2021/05/19 02:42:06;;;;;;;2.50;2.20;;;;;;;;;;5082002;28;20449;-94
2021/05/19 02:44:32;;;;;;;2.90;2.30;;;;;;;;;;5077553;28;20472;-94
2021/05/19 02:46:58;;;;;;;4.50;2.80;;;;;;;;;;5081611;28;20453;-95
2021/05/19 02:49:25;;;;;;;3.37;3.07;;;;;;;;;;5078442;28;20513;-95
2021/05/19 02:51:51;;;;;;;3.50;2.90;;;;;;;;;;5082414;28;20519;-94
2021/05/19 02:54:16;;;;;;;6.70;2.10;;;;;;;;;;5075479;28;21005;-95
2021/05/19 02:56:42;;;;;;;2.63;1.80;;;;;;;;;;5080974;28;20479;-95
2021/05/19 02:59:08;;;;;;;5.67;2.40;;;;;;;;;;5077301;28;20452;-95
2021/05/19 03:01:35;;;;;;;2.70;2.50;;;;;;;;;;5082817;28;20862;-96
2021/05/19 03:04:01;;;;;;;8.47;2.90;;;;;;;;;;5076479;28;20488;-95
2021/05/19 03:06:28;;;;;;;2.90;2.30;;;;;;;;;;5082493;28;20453;-95
2021/05/19 03:08:54;;;;;;;5.17;2.43;;;;;;;;;;5075326;28;20822;-95
2021/05/19 03:11:21;;;;;;;5.03;2.60;;;;;;;;;;5080399;28;20481;-95
2021/05/19 03:13:47;;;;;;;2.13;2.03;;;;;;;;;;5077295;28;20566;-96
2021/05/19 03:16:14;;;;;;;2.80;2.00;;;;;;;;;;5080402;28;20445;-96
2021/05/19 03:18:40;;;;;;;2.87;2.20;;;;;;;;;;5081414;28;20461;-96
2021/05/19 03:21:06;;;;;;;2.83;2.30;;;;;;;;;;5074336;28;20484;-96
2021/05/19 03:23:33;;;;;;;2.90;2.63;;;;;;;;;;5081365;28;20449;-95
2021/05/19 03:25:59;;;;;;;4.30;2.50;;;;;;;;;;5074493;28;20478;-96
2021/05/19 03:28:25;;;;;;;2.57;2.37;;;;;;;;;;5081163;28;20461;-96
2021/05/19 03:30:51;;;;;;;2.10;2.00;;;;;;;;;;5072042;28;21021;-96
2021/05/19 03:33:18;;;;;;;2.80;2.53;;;;;;;;;;5081970;28;20453;-96
2021/05/19 03:35:44;;;;;;;6.83;3.00;;;;;;;;;;5079008;28;20814;-96
2021/05/19 03:38:10;;;;;;;3.03;2.53;;;;;;;;;;5083244;28;20441;-96
2021/05/19 03:40:37;;;;;;;6.90;3.40;;;;;;;;;;5080970;28;20464;-96
2021/05/19 03:43:04;;;;;;;3.30;2.63;;;;;;;;;;5082092;28;20441;-96
2021/05/19 03:45:30;;;;;;;2.60;2.40;;;;;;;;;;5079546;28;20449;-96
2021/05/19 03:47:57;;;;;;;2.70;2.50;;;;;;;;;;5085670;28;20483;-96
2021/05/19 03:50:25;;;;;;;6.60;2.80;;;;;;;;;;5082352;28;20481;-96
2021/05/19 03:52:51;;;;;;;7.63;3.60;;;;;;;;;;5083675;28;20460;-96
2021/05/19 03:55:19;;;;;;;4.70;3.47;;;;;;;;;;5088662;28;20509;-96
2021/05/19 03:57:46;;;;;;;5.43;4.40;;;;;;;;;;5085823;28;20461;-96
2021/05/19 04:00:13;;;;;;;6.93;4.70;;;;;;;;;;5080555;28;20444;-96
2021/05/19 04:02:40;;;;;;;6.00;5.50;;;;;;;;;;5070819;28;20472;-96
2021/05/19 04:05:06;;;;;;;7.40;4.97;;;;;;;;;;5081724;28;20477;-95
2021/05/19 04:07:32;;;;;;;5.90;4.17;;;;;;;;;;5070539;28;20483;-95
2021/05/19 04:09:59;;;;;;;3.87;3.57;;;;;;;;;;5081034;28;20445;-95
2021/05/19 04:12:25;;;;;;;4.50;4.10;;;;;;;;;;5070384;28;20489;-95
2021/05/19 04:14:51;;;;;;;3.33;3.07;;;;;;;;;;5081844;28;20449;-95
2021/05/19 04:17:18;;;;;;;3.87;3.50;;;;;;;;;;5081011;28;20457;-96
2021/05/19 04:19:44;;;;;;;6.80;3.67;;;;;;;;;;5080640;28;20445;-96
2021/05/19 04:22:10;;;;;;;3.60;3.30;;;;;;;;;;5077162;28;20471;-96
2021/05/19 04:24:36;;;;;;;4.37;3.40;;;;;;;;;;5083426;28;20486;-95
2021/05/19 04:27:02;;;;;;;5.77;4.20;;;;;;;;;;5085187;28;20444;-96
2021/05/19 04:29:28;;;;;;;6.93;3.93;;;;;;;;;;5085391;28;20453;-95
2021/05/19 04:31:55;;;;;;;3.63;3.30;;;;;;;;;;5082348;28;20497;-96
2021/05/19 04:34:21;;;;;;;4.60;3.27;;;;;;;;;;5085382;28;20484;-95
2021/05/19 04:36:47;;;;;;;8.60;3.13;;;;;;;;;;5080209;28;20453;-95
2021/05/19 04:39:13;;;;;;;3.40;3.10;;;;;;;;;;5081169;28;20440;-95
2021/05/19 04:41:39;;;;;;;4.67;3.40;;;;;;;;;;5083760;28;20450;-96
2021/05/19 04:44:05;;;;;;;3.70;3.40;;;;;;;;;;5079680;28;20514;-96
2021/05/19 04:46:31;;;;;;;5.47;3.90;;;;;;;;;;5084707;28;20458;-96
2021/05/19 04:48:59;;;;;;;3.87;3.13;;;;;;;;;;5081706;28;20499;-95
2021/05/19 04:51:25;;;;;;;3.63;3.20;;;;;;;;;;5085081;28;20485;-96
2021/05/19 04:53:51;;;;;;;4.93;4.33;;;;;;;;;;5077988;28;20468;-96
2021/05/19 04:56:17;;;;;;;7.43;4.30;;;;;;;;;;5083682;28;20481;-96
2021/05/19 04:58:43;;;;;;;8.07;4.30;;;;;;;;;;5078207;28;20593;-96
2021/05/19 05:01:09;;;;;;;5.13;4.57;;;;;;;;;;5085140;28;20994;-96
2021/05/19 05:03:35;;;;;;;9.50;4.40;;;;;;;;;;5076643;28;20486;-96
2021/05/19 05:06:02;;;;;;;6.47;4.60;;;;;;;;;;5084168;28;20459;-96
2021/05/19 05:08:28;;;;;;;6.57;4.50;;;;;;;;;;5077206;28;20457;-95
2021/05/19 05:10:54;;;;;;;8.87;5.87;;;;;;;;;;5083719;28;20550;-96
2021/05/19 05:13:20;;;;;;;8.30;5.00;;;;;;;;;;5080370;28;20447;-96
2021/05/19 05:15:46;;;;;;;7.90;6.63;;;;;;;;;;5081318;28;20443;-96
2021/05/19 05:18:12;;;;;;;9.17;7.70;;;;;;;;;;5083848;28;20459;-96
2021/05/19 05:20:38;;;;;;;9.13;7.23;;;;;;;;;;5073573;28;20463;-95
2021/05/19 05:23:05;;;;;;;7.27;6.57;;;;;;;;;;5082740;28;20467;-96
2021/05/19 05:25:31;;;;;;;4.63;4.10;;;;;;;;;;5074695;28;21324;-95
2021/05/19 05:27:57;;;;;;;3.90;3.60;;;;;;;;;;5084246;28;20449;-96
2021/05/19 05:30:23;;;;;;;4.10;3.80;;;;;;;;;;5073951;28;20467;-96
2021/05/19 05:32:49;;;;;;;4.53;3.83;;;;;;;;;;5080408;28;20494;-96
2021/05/19 05:35:16;;;;;;;4.47;4.07;;;;;;;;;;5078286;28;20464;-96
2021/05/19 05:37:42;;;;;;;7.67;4.23;;;;;;;;;;5085905;28;20443;-96
2021/05/19 05:40:10;;;;;;;7.23;3.70;;;;;;;;;;5056533;28;20457;-96
2021/05/19 05:42:36;;;;;;;6.37;4.67;;;;;;;;;;5086011;28;20453;-96
2021/05/19 05:45:03;;;;;;;6.10;5.50;;;;;;;;;;5084329;28;20463;-96
2021/05/19 05:47:29;;;;;;;8.83;4.90;;;;;;;;;;5208184;22;20496;-96
2021/05/19 05:49:57;;;;;;;9.00;5.43;;;;;;;;;;5084288;28;20458;-96
2021/05/19 05:52:24;;;;;;;9.60;6.10;;;;;;;;;;5079021;28;21063;-96
2021/05/19 05:54:50;;;;;;;6.07;5.57;;;;;;;;;;5060825;28;20452;-96
2021/05/19 05:57:17;;;;;;;5.80;5.20;;;;;;;;;;5073545;28;20452;-96
2021/05/19 05:59:43;;;;;;;9.27;5.00;;;;;;;;;;5082375;28;20451;-96
2021/05/19 06:02:09;;;;;;;5.93;4.87;;;;;;;;;;5077956;28;20471;-96
2021/05/19 06:04:35;;;;;;;5.67;5.17;;;;;;;;;;5081073;28;20447;-94
2021/05/19 06:07:03;;;;;;;7.67;5.03;;;;;;;;;;5077953;28;20512;-96
2021/05/19 06:09:29;;;;;;;7.10;5.00;;;;;;;;;;5083024;28;20452;-96
2021/05/19 06:11:55;;;;;;;6.37;5.67;;;;;;;;;;5079238;28;20485;-96
2021/05/19 06:14:22;;;;;;;4.90;4.40;;;;;;;;;;5084507;28;20444;-96
2021/05/19 06:16:48;;;;;;;6.07;4.70;;;;;;;;;;5081516;28;20494;-95
2021/05/19 06:19:20;;;;;;;5.53;4.17;;;;;;;;;;5085604;28;20460;-96
2021/05/19 06:21:46;;;;;;;5.07;3.83;;;;;;;;;;5085484;28;20438;-96
2021/05/19 06:24:18;;;;;;;11.00;3.83;;;;;;;;;;5084196;28;20463;-96
2021/05/19 06:26:44;;;;;;;3.63;3.33;;;;;;;;;;5086635;28;20452;-96
2021/05/19 06:29:10;;;;;;;4.60;4.10;;;;;;;;;;5081887;28;20433;-95
2021/05/19 06:31:49;;;;;;;4.27;3.60;;;;;;;;;;5086389;28;20475;-96
2021/05/19 06:34:16;;;;;;;5.80;3.43;;;;;;;;;;5269819;22;20489;-96
2021/05/19 06:36:45;;;;;;;4.10;3.77;;;;;;;;;;5065217;28;21243;-96
2021/05/19 06:39:11;;;;;;;4.80;3.60;;;;;;;;;;5061292;28;20449;-96
2021/05/19 06:41:37;;;;;;;5.00;3.33;;;;;;;;;;5060902;28;21009;-96
2021/05/19 06:44:03;;;;;;;2.73;2.53;;;;;;;;;;5062355;28;20438;-96
2021/05/19 06:46:30;;;;;;;2.80;2.60;;;;;;;;;;5069333;28;20450;-96
2021/05/19 06:49:18;;;;;;;3.70;2.97;;;;;;;;;;5067467;28;20470;-96
2021/05/19 07:19:58;;;;;;;4.60;4.20;;;;;;;;;;5590283;22;20458;-96
2021/05/19 08:04:49;;;;;;;3.70;2.70;;;;;;;;;;5085166;28;20501;-96
2021/05/19 08:07:15;;;;;;;3.07;2.77;;;;;;;;;;5113023;22;20456;-94
2021/05/19 08:09:41;;;;;;;4.37;2.73;;;;;;;;;;5053743;28;20868;-93
2021/05/19 08:15:15;;;;;;;3.03;2.50;;;;;;;;;;5137497;23;20507;-96
2021/05/19 08:17:42;;;;;;;5.90;3.47;;;;;;;;;;5072394;23;20543;-94
2021/05/19 08:20:08;;;;;;;4.27;3.40;;;;;;;;;;5072827;28;20435;-96
2021/05/19 08:39:02;;;;;;;1.87;1.40;;;;;;;;;;4827111;26;20556;-96
2021/05/19 08:41:29;;;;;;;4.57;1.70;;;;;;;;;;5076210;23;20555;-96
2021/05/19 08:49:30;;;;;;;3.67;1.60;;;;;;;;;;5189764;23;20470;-96
2021/05/19 08:57:21;;;;;;;1.67;1.53;;;;;;;;;;5205128;22;20563;-96
2021/05/19 09:00:13;;;;;;;4.87;1.80;;;;;;;;;;5094672;23;20586;31
2021/05/19 09:02:40;;;;;;;3.37;1.83;;;;;;;;;;4996624;28;20445;-96
2021/05/19 09:05:07;;;;;;;1.80;1.43;;;;;;;;;;4990021;28;20450;-96
2021/05/19 09:07:34;;;;;;;4.57;1.60;;;;;;;;;;4992456;28;20454;-96
2021/05/19 09:10:21;;;;;;;3.03;1.97;;;;;;;;;;4991997;28;20464;-96
2021/05/19 09:15:45;;;;;;;2.10;1.60;;;;;;;;;;4958316;28;20540;-96
2021/05/19 09:21:06;;;;;;;2.47;1.53;;;;;;;;;;3482403;22;20268;-96
2021/05/19 09:23:46;;;;;;;1.60;1.50;;;;;;;;;;5064929;28;20435;-95
2021/05/19 09:26:16;;;;;;;3.27;1.60;;;;;;;;;;5057089;28;20447;-96
2021/05/19 09:28:57;;;;;;;2.73;1.50;;;;;;;;;;5054903;28;20463;-96
2021/05/19 09:31:44;;;;;;;2.37;1.30;;;;;;;;;;5054725;28;20459;-96
2021/05/19 09:34:31;;;;;;;3.20;1.90;;;;;;;;;;5080951;23;20499;-96
2021/05/19 09:37:40;;;;;;;1.77;1.63;;;;;;;;;;5028232;28;20472;-96
2021/05/19 09:40:49;;;;;;;2.10;1.40;;;;;;;;;;5051321;28;20465;-96
2021/05/19 09:43:39;;;;;;;1.87;1.70;;;;;;;;;;5048186;28;20521;-96
2021/05/19 09:46:23;;;;;;;1.50;1.40;;;;;;;;;;5041832;28;20438;-96
2021/05/19 09:49:08;;;;;;;7.10;1.60;;;;;;;;;;5050301;28;21856;-96
2021/05/19 09:51:47;;;;;;;1.77;1.57;;;;;;;;;;5043601;28;20490;-96
2021/05/19 09:54:38;;;;;;;1.67;1.47;;;;;;;;;;5038430;28;20458;-96
2021/05/19 09:57:07;;;;;;;1.83;1.30;;;;;;;;;;5049001;28;20447;-95
2021/05/19 09:59:44;;;;;;;3.00;1.63;;;;;;;;;;5055907;28;20434;-96
2021/05/19 10:02:30;;;;;;;3.10;1.50;;;;;;;;;;5052423;28;20454;-96
2021/05/19 10:05:10;;;;;;;4.63;1.60;;;;;;;;;;5052031;28;20477;-95
2021/05/19 10:07:43;;;;;;;2.20;1.40;;;;;;;;;;5106628;23;20513;-96
2021/05/19 10:10:18;;;;;;;2.17;1.30;;;;;;;;;;5036802;28;20468;-96
2021/05/19 10:12:50;;;;;;;1.40;1.30;;;;;;;;;;5235515;23;20503;-95
2021/05/19 10:18:16;;;;;;;1.87;1.73;;;;;;;;;;5109190;23;20488;-95
2021/05/19 10:21:07;;;;;;;3.20;1.60;;;;;;;;;;5040850;28;20456;-96
2021/05/19 10:23:39;;;;;;;1.60;1.47;;;;;;;;;;5222356;23;20496;-96
2021/05/19 10:31:41;;;;;;;2.87;1.70;;;;;;;;;;5322371;23;20847;-95
2021/05/19 10:34:10;;;;;;;3.60;1.70;;;;;;;;;;5062344;23;20493;-96
2021/05/19 10:36:42;;;;;;;3.53;1.50;;;;;;;;;;5053782;28;20443;-96
2021/05/19 10:39:32;;;;;;;1.77;1.67;;;;;;;;;;5065625;28;20446;-96
2021/05/19 10:42:06;;;;;;;1.83;1.70;;;;;;;;;;5066488;28;20474;-96
2021/05/19 10:44:39;;;;;;;1.50;1.40;;;;;;;;;;5067398;28;20453;-96
2021/05/19 10:47:15;;;;;;;3.67;1.70;;;;;;;;;;5065246;28;20530;-95
2021/05/19 10:57:11;;;;;;;3.53;1.60;;;;;;;;;;5131914;22;20490;-95
2021/05/19 11:04:26;;;;;;;2.13;1.80;;;;;;;;;;5026908;28;20443;-95
2021/05/19 11:07:09;;;;;;;2.53;1.57;;;;;;;;;;5035170;28;20459;-96
2021/05/19 11:09:42;;;;;;;3.80;1.80;;;;;;;;;;5033163;28;20482;-96
2021/05/19 11:12:54;;;;;;;2.03;1.63;;;;;;;;;;5029898;28;20475;-96
2021/05/19 11:15:49;;;;;;;2.40;1.70;;;;;;;;;;4963396;28;20468;-95
2021/05/19 11:18:33;;;;;;;3.30;1.77;;;;;;;;;;4979834;28;20462;-96
2021/05/19 11:21:09;;;;;;;1.93;1.83;;;;;;;;;;4973148;28;20481;-96
2021/05/19 11:23:45;;;;;;;6.03;2.10;;;;;;;;;;5014908;28;20424;-96
2021/05/19 11:26:14;;;;;;;4.97;2.07;;;;;;;;;;5044518;28;20454;-96
2021/05/19 11:31:25;;;;;;;2.73;1.80;;;;;;;;;;5002628;28;20492;-96
2021/05/19 11:33:54;;;;;;;1.70;1.60;;;;;;;;;;5007148;28;21049;-94
2021/05/19 11:36:29;;;;;;;3.23;2.10;;;;;;;;;;5028351;23;20569;-96
2021/05/19 11:38:55;;;;;;;3.80;1.60;;;;;;;;;;5043171;28;20454;-90
2021/05/19 11:41:21;;;;;;;2.87;2.00;;;;;;;;;;5047862;28;20521;-89
2021/05/19 11:43:50;;;;;;;1.90;1.47;;;;;;;;;;5055689;28;20480;-95
2021/05/19 11:46:16;;;;;;;3.23;1.70;;;;;;;;;;5061276;28;20442;-91
2021/05/19 11:48:47;;;;;;;2.03;1.50;;;;;;;;;;5053228;28;20556;-94
2021/05/19 11:51:19;;;;;;;2.97;1.67;;;;;;;;;;5046805;28;20466;-93
2021/05/19 11:53:54;;;;;;;3.00;1.50;;;;;;;;;;5049926;28;20450;-95
2021/05/19 11:56:23;;;;;;;4.17;1.60;;;;;;;;;;5048755;28;20447;-95
2021/05/19 11:58:49;;;;;;;2.33;1.63;;;;;;;;;;5062678;28;20484;-93
2021/05/19 12:01:17;;;;;;;2.07;1.50;;;;;;;;;;5062954;28;20449;-94
2021/05/19 12:03:45;;;;;;;2.10;1.70;;;;;;;;;;5059533;28;20446;-94
2021/05/19 12:08:53;;;;;;;1.80;1.37;;;;;;;;;;5051383;28;20443;-95
2021/05/19 12:11:20;;;;;;;5.03;1.60;;;;;;;;;;5054794;28;20499;-92
2021/05/19 12:13:47;;;;;;;1.60;1.30;;;;;;;;;;5073419;28;20438;-93
2021/05/19 12:16:17;;;;;;;2.77;1.53;;;;;;;;;;5058178;28;20461;-92
2021/05/19 12:18:56;;;;;;;5.50;1.67;;;;;;;;;;5056014;28;20442;-92
2021/05/19 12:21:22;;;;;;;4.70;1.67;;;;;;;;;;5060983;28;20545;-91
2021/05/19 12:23:48;;;;;;;1.57;1.47;;;;;;;;;;5068268;28;20454;-95
2021/05/19 12:26:19;;;;;;;2.07;1.80;;;;;;;;;;5052683;28;20455;-93
2021/05/19 12:28:52;;;;;;;2.20;1.63;;;;;;;;;;5046139;28;20451;-95
2021/05/19 12:31:28;;;;;;;3.57;1.50;;;;;;;;;;5050852;28;20485;-93
2021/05/19 12:33:54;;;;;;;4.27;1.60;;;;;;;;;;5053580;28;20451;-95
2021/05/19 12:36:24;;;;;;;3.03;1.50;;;;;;;;;;5054279;28;20539;-96
2021/05/19 12:38:50;;;;;;;3.13;1.60;;;;;;;;;;5047863;28;20451;-94
2021/05/19 12:41:40;;;;;;;2.60;1.50;;;;;;;;;;5056671;28;20462;-96
2021/05/19 12:44:08;;;;;;;1.90;1.57;;;;;;;;;;5052932;28;20481;-96
2021/05/19 12:46:34;;;;;;;1.80;1.40;;;;;;;;;;5049172;28;20459;-95
2021/05/19 12:49:22;;;;;;;6.50;1.97;;;;;;;;;;5071817;28;20442;-95
2021/05/19 12:54:37;;;;;;;3.40;1.60;;;;;;;;;;5039948;26;20492;-93
2021/05/19 12:57:06;;;;;;;2.60;2.00;;;;;;;;;;5043752;28;20458;-96
2021/05/19 12:59:50;;;;;;;1.90;1.70;;;;;;;;;;5044678;28;20454;-95
2021/05/19 13:02:21;;;;;;;2.47;1.90;;;;;;;;;;5039471;28;20459;-95
2021/05/19 13:04:59;;;;;;;2.77;1.90;;;;;;;;;;5039091;28;20543;-96
2021/05/19 13:07:43;;;;;;;2.60;1.30;;;;;;;;;;5042687;28;20525;-96
2021/05/19 13:10:17;;;;;;;2.60;2.10;;;;;;;;;;5041742;23;20514;-96
2021/05/19 13:13:10;;;;;;;2.20;2.00;;;;;;;;;;5024815;28;20872;-94
2021/05/19 13:15:40;;;;;;;2.07;1.70;;;;;;;;;;5028986;28;20452;-95
2021/05/19 13:18:29;;;;;;;4.53;2.23;;;;;;;;;;5029083;28;20477;-96
2021/05/19 13:21:03;;;;;;;2.07;1.87;;;;;;;;;;5022933;28;20523;-95
2021/05/19 13:23:44;;;;;;;4.93;1.80;;;;;;;;;;5029513;28;20471;-96
2021/05/19 13:26:20;;;;;;;2.30;1.70;;;;;;;;;;5030655;28;20497;-95
2021/05/19 13:37:13;;;;;;;5.33;1.83;;;;;;;;;;5189930;23;20589;-94
2021/05/19 13:39:39;;;;;;;2.70;1.70;;;;;;;;;;5054876;28;20449;-95
2021/05/19 13:42:05;;;;;;;2.03;1.60;;;;;;;;;;5055904;28;20465;-96
2021/05/19 13:44:31;;;;;;;1.60;1.50;;;;;;;;;;5057551;28;20446;-94
2021/05/19 13:46:58;;;;;;;3.00;1.70;;;;;;;;;;5062900;28;20531;-92
2021/05/19 13:49:27;;;;;;;2.40;1.50;;;;;;;;;;5057797;28;20456;-94
2021/05/19 13:51:55;;;;;;;5.77;1.90;;;;;;;;;;5045793;28;20483;-95
2021/05/19 13:54:22;;;;;;;3.03;1.70;;;;;;;;;;5055277;28;20489;-96
2021/05/19 13:56:51;;;;;;;1.87;1.53;;;;;;;;;;5056294;28;20535;-94
2021/05/19 13:59:18;;;;;;;3.13;1.83;;;;;;;;;;5044813;28;20519;-93
2021/05/19 14:01:45;;;;;;;3.43;1.83;;;;;;;;;;5049593;28;20471;-96
2021/05/19 14:04:12;;;;;;;3.53;2.00;;;;;;;;;;5054844;28;20459;-96
2021/05/19 14:06:38;;;;;;;2.40;1.63;;;;;;;;;;5063714;28;20469;-96
2021/05/19 14:09:05;;;;;;;5.47;2.00;;;;;;;;;;5050211;28;20517;-95
2021/05/19 14:11:34;;;;;;;5.20;2.10;;;;;;;;;;5046232;28;20593;-95
2021/05/19 14:14:10;;;;;;;2.50;2.20;;;;;;;;;;5042557;28;20478;-94
2021/05/19 14:17:00;;;;;;;3.57;2.00;;;;;;;;;;5052956;28;21028;-96
2021/05/19 14:27:41;;;;;;;1.60;1.50;;;;;;;;;;5022231;28;20457;-96
2021/05/19 14:30:08;;;;;;;2.60;1.67;;;;;;;;;;5061706;28;20457;-95
2021/05/19 14:32:35;;;;;;;3.63;2.20;;;;;;;;;;5047327;28;20494;-95
2021/05/19 14:35:06;;;;;;;2.43;1.80;;;;;;;;;;5059292;28;20477;-96
2021/05/19 14:59:02;;;;;;;2.10;1.73;;;;;;;;;;5052816;28;20492;-95
2021/05/19 15:00:20;;;;;;;3.37;2.03;;;;;;;;;;5070917;28;20455;-96
2021/05/19 15:02:53;;;;;;;2.50;1.80;;;;;;;;;;5055638;28;20489;-96
2021/05/19 15:05:20;;;;;;;2.20;1.77;;;;;;;;;;5043945;28;20431;-95
2021/05/19 15:07:49;;;;;;;5.10;1.70;;;;;;;;;;5055235;28;20458;-95
2021/05/19 15:10:15;;;;;;;4.27;2.00;;;;;;;;;;5052390;28;20615;-92
2021/05/19 15:12:45;;;;;;;1.90;1.70;;;;;;;;;;5046270;28;20490;-95
2021/05/19 15:15:13;;;;;;;3.40;1.80;;;;;;;;;;5058077;28;20451;-96
2021/05/19 15:17:41;;;;;;;1.73;1.63;;;;;;;;;;5054507;28;20465;-95
2021/05/19 15:20:07;;;;;;;2.63;2.00;;;;;;;;;;5062018;28;20438;-95
2021/05/19 15:22:33;;;;;;;3.23;2.10;;;;;;;;;;5060181;28;20462;-96
2021/05/19 15:25:02;;;;;;;2.23;1.87;;;;;;;;;;5062900;28;20449;-94
2021/05/19 15:27:28;;;;;;;3.57;1.80;;;;;;;;;;5045843;28;20481;-92
2021/05/19 15:29:54;;;;;;;4.70;1.93;;;;;;;;;;5071837;23;21887;-96
2021/05/19 15:32:20;;;;;;;3.60;2.30;;;;;;;;;;5038574;28;20497;-96
2021/05/19 15:34:48;;;;;;;2.50;1.70;;;;;;;;;;5026753;28;20474;-94
2021/05/19 15:37:16;;;;;;;2.50;1.60;;;;;;;;;;5039627;28;20429;-93
2021/05/19 15:39:42;;;;;;;3.83;1.67;;;;;;;;;;5007715;28;20484;-94
2021/05/19 15:47:32;;;;;;;3.53;1.80;;;;;;;;;;5025988;28;20456;-93
2021/05/19 15:50:12;;;;;;;3.67;2.27;;;;;;;;;;5039437;28;20435;-96
2021/05/19 15:52:42;;;;;;;4.70;2.10;;;;;;;;;;5049814;28;20462;-96
2021/05/19 15:55:09;;;;;;;5.17;2.10;;;;;;;;;;5039040;28;20459;-95
2021/05/19 15:57:38;;;;;;;4.20;2.37;;;;;;;;;;5028882;28;20459;-96
2021/05/19 16:02:47;;;;;;;1.90;1.80;;;;;;;;;;5027637;28;20444;-96
2021/05/19 16:05:14;;;;;;;2.23;2.03;;;;;;;;;;5039291;28;20466;-96
2021/05/19 16:10:39;;;;;;;2.33;2.10;;;;;;;;;;5032495;28;20436;-94
2021/05/19 16:15:57;;;;;;;3.00;1.90;;;;;;;;;;5041829;28;20466;-96
2021/05/19 16:18:26;;;;;;;2.80;1.97;;;;;;;;;;5048667;28;20455;-95
2021/05/19 16:20:55;;;;;;;2.17;1.83;;;;;;;;;;5055637;28;20431;-96
2021/05/19 16:23:21;;;;;;;2.30;2.13;;;;;;;;;;5053502;28;20427;-95
2021/05/19 16:25:58;;;;;;;2.70;2.17;;;;;;;;;;5042319;28;20836;-96
2021/05/19 16:28:28;;;;;;;2.13;1.87;;;;;;;;;;5044609;28;20467;-96
2021/05/19 16:31:09;;;;;;;2.10;2.00;;;;;;;;;;5037577;23;20498;-96
2021/05/19 16:34:08;;;;;;;4.47;2.40;;;;;;;;;;5026502;28;20524;-96
2021/05/19 16:36:43;;;;;;;2.13;1.93;;;;;;;;;;5027765;28;20471;-96
2021/05/19 16:39:16;;;;;;;3.97;2.10;;;;;;;;;;5016658;28;20466;-96
2021/05/19 16:41:45;;;;;;;3.13;2.00;;;;;;;;;;5053938;23;20497;-96
2021/05/19 16:44:22;;;;;;;5.20;2.20;;;;;;;;;;5039926;28;20480;-96
2021/05/19 16:46:51;;;;;;;3.17;2.30;;;;;;;;;;5043822;23;20559;-96
2021/05/19 16:49:18;;;;;;;3.53;2.10;;;;;;;;;;5039190;28;20451;-96
2021/05/19 16:51:46;;;;;;;3.97;2.30;;;;;;;;;;5052566;23;20493;-95
2021/05/19 16:54:24;;;;;;;2.80;2.20;;;;;;;;;;5056743;28;20441;-96
2021/05/19 16:57:00;;;;;;;3.30;2.00;;;;;;;;;;5052137;28;21406;-96
2021/05/19 16:59:30;;;;;;;3.00;2.33;;;;;;;;;;5067040;28;20523;-95
2021/05/19 17:04:54;;;;;;;4.30;2.07;;;;;;;;;;5060393;28;20440;-96
2021/05/19 17:07:24;;;;;;;5.60;2.57;;;;;;;;;;5049287;28;20481;-96
2021/05/19 17:09:50;;;;;;;2.97;2.50;;;;;;;;;;5057648;28;20461;-96
2021/05/19 17:12:28;;;;;;;5.53;2.43;;;;;;;;;;5065087;28;20491;-96
2021/05/19 17:14:54;;;;;;;4.97;2.20;;;;;;;;;;5055670;28;20960;-96
2021/05/19 17:17:20;;;;;;;3.40;2.17;;;;;;;;;;5055663;28;20477;-96
2021/05/19 17:19:46;;;;;;;2.67;2.20;;;;;;;;;;5056318;28;20473;-96
2021/05/19 17:22:16;;;;;;;3.30;2.17;;;;;;;;;;5055744;28;20455;-96
2021/05/19 17:24:47;;;;;;;13.53;2.80;;;;;;;;;;5064337;28;20451;-96
2021/05/19 17:27:13;;;;;;;5.93;2.40;;;;;;;;;;5061654;28;20450;-96
2021/05/19 17:30:13;;;;;;;2.80;2.23;;;;;;;;;;5068508;28;20801;-96
2021/05/19 17:32:40;;;;;;;4.70;2.90;;;;;;;;;;5061838;28;20514;-96
2021/05/19 17:35:06;;;;;;;8.27;2.77;;;;;;;;;;5055844;28;20480;-96
2021/05/19 17:37:36;;;;;;;3.10;2.20;;;;;;;;;;5059578;28;20514;-96
2021/05/19 17:40:02;;;;;;;3.03;2.40;;;;;;;;;;5047791;28;20455;-94
2021/05/19 17:42:36;;;;;;;7.70;2.67;;;;;;;;;;5061286;28;20451;-96
2021/05/19 17:45:02;;;;;;;3.60;2.63;;;;;;;;;;5049258;28;20452;-96
2021/05/19 17:47:28;;;;;;;4.13;2.80;;;;;;;;;;5067076;28;20458;-96
2021/05/19 17:49:56;;;;;;;3.53;2.63;;;;;;;;;;5045799;28;20459;-96
2021/05/19 17:52:22;;;;;;;2.87;2.43;;;;;;;;;;5062143;28;20520;-95
2021/05/19 17:54:49;;;;;;;5.17;2.60;;;;;;;;;;5051630;28;20458;-96
2021/05/19 17:57:15;;;;;;;3.67;2.50;;;;;;;;;;5064685;28;20462;-96
2021/05/19 17:59:44;;;;;;;3.33;2.80;;;;;;;;;;5057488;28;20462;-96
2021/05/19 18:02:12;;;;;;;4.57;2.87;;;;;;;;;;5056211;28;20466;-96
2021/05/19 18:04:39;;;;;;;6.00;2.97;;;;;;;;;;5048391;28;20458;-95
2021/05/19 18:07:07;;;;;;;3.20;2.50;;;;;;;;;;5054903;28;20443;-95
2021/05/19 18:09:34;;;;;;;4.07;2.80;;;;;;;;;;5061541;28;20458;-96